sensor_id;sensor_type;location;lat;lon;timestamp;P1;durP1;ratioP1;P2;durP2;ratioP2
13805;SDS011;6974;53.606;9.872;2022-09-09T00:01:54;27.97;;;25.23;;
13805;SDS011;6974;53.606;9.872;2022-09-09T00:04:29;28.93;;;26.13;;
13805;SDS011;6974;53.606;9.872;2022-09-09T00:06:59;25.70;;;23.07;;
13805;SDS011;6974;53.606;9.872;2022-09-09T00:09:31;28.23;;;25.43;;
13805;SDS011;6974;53.606;9.872;2022-09-09T00:12:08;28.00;;;24.93;;
13805;SDS011;6974;53.606;9.872;2022-09-09T00:14:39;28.70;;;25.80;;
13805;SDS011;6974;53.606;9.872;2022-09-09T00:17:14;29.43;;;26.43;;
13805;SDS011;6974;53.606;9.872;2022-09-09T00:19:54;29.07;;;26.17;;
13805;SDS011;6974;53.606;9.872;2022-09-09T00:22:27;30.10;;;27.07;;
13805;SDS011;6974;53.606;9.872;2022-09-09T00:24:57;31.60;;;28.20;;
13805;SDS011;6974;53.606;9.872;2022-09-09T00:27:36;27.93;;;25.17;;
13805;SDS011;6974;53.606;9.872;2022-09-09T00:30:13;28.73;;;25.80;;
13805;SDS011;6974;53.606;9.872;2022-09-09T00:32:44;31.30;;;28.07;;
13805;SDS011;6974;53.606;9.872;2022-09-09T00:35:16;32.33;;;28.93;;
13805;SDS011;6974;53.606;9.872;2022-09-09T00:37:47;30.27;;;27.17;;
13805;SDS011;6974;53.606;9.872;2022-09-09T00:40:18;30.73;;;27.63;;
13805;SDS011;6974;53.606;9.872;2022-09-09T00:42:52;30.40;;;27.33;;
13805;SDS011;6974;53.606;9.872;2022-09-09T00:45:37;32.10;;;28.77;;
13805;SDS011;6974;53.606;9.872;2022-09-09T00:48:18;33.47;;;28.53;;
13805;SDS011;6974;53.606;9.872;2022-09-09T00:50:50;29.20;;;26.20;;
13805;SDS011;6974;53.606;9.872;2022-09-09T00:53:26;30.47;;;27.37;;
13805;SDS011;6974;53.606;9.872;2022-09-09T00:56:06;29.03;;;26.07;;
13805;SDS011;6974;53.606;9.872;2022-09-09T00:58:38;28.50;;;25.63;;
13805;SDS011;6974;53.606;9.872;2022-09-09T01:01:07;28.73;;;25.63;;
13805;SDS011;6974;53.606;9.872;2022-09-09T01:03:37;27.63;;;24.73;;
13805;SDS011;6974;53.606;9.872;2022-09-09T01:06:18;27.00;;;24.17;;
13805;SDS011;6974;53.606;9.872;2022-09-09T01:08:56;27.20;;;24.40;;
13805;SDS011;6974;53.606;9.872;2022-09-09T01:11:31;26.27;;;23.67;;
13805;SDS011;6974;53.606;9.872;2022-09-09T01:14:05;28.00;;;25.20;;
13805;SDS011;6974;53.606;9.872;2022-09-09T01:16:43;27.37;;;24.60;;
13805;SDS011;6974;53.606;9.872;2022-09-09T01:19:13;27.43;;;24.63;;
13805;SDS011;6974;53.606;9.872;2022-09-09T01:21:48;30.40;;;27.50;;
13805;SDS011;6974;53.606;9.872;2022-09-09T01:24:22;31.90;;;28.50;;
13805;SDS011;6974;53.606;9.872;2022-09-09T01:26:55;30.40;;;27.30;;
13805;SDS011;6974;53.606;9.872;2022-09-09T01:29:24;29.23;;;26.23;;
13805;SDS011;6974;53.606;9.872;2022-09-09T01:31:52;28.80;;;25.87;;
13805;SDS011;6974;53.606;9.872;2022-09-09T01:34:22;26.77;;;23.97;;
13805;SDS011;6974;53.606;9.872;2022-09-09T01:36:52;28.67;;;25.77;;
13805;SDS011;6974;53.606;9.872;2022-09-09T01:39:23;26.37;;;23.70;;
13805;SDS011;6974;53.606;9.872;2022-09-09T01:41:50;25.43;;;22.83;;
13805;SDS011;6974;53.606;9.872;2022-09-09T01:44:19;25.30;;;22.80;;
13805;SDS011;6974;53.606;9.872;2022-09-09T01:46:46;28.17;;;25.40;;
13805;SDS011;6974;53.606;9.872;2022-09-09T01:49:13;26.53;;;23.73;;
13805;SDS011;6974;53.606;9.872;2022-09-09T01:51:40;27.67;;;24.77;;
13805;SDS011;6974;53.606;9.872;2022-09-09T01:54:09;26.17;;;23.57;;
13805;SDS011;6974;53.606;9.872;2022-09-09T01:56:40;27.80;;;25.00;;
13805;SDS011;6974;53.606;9.872;2022-09-09T01:59:29;25.87;;;23.17;;
13805;SDS011;6974;53.606;9.872;2022-09-09T02:02:09;24.10;;;21.70;;
13805;SDS011;6974;53.606;9.872;2022-09-09T02:04:40;23.40;;;21.10;;
13805;SDS011;6974;53.606;9.872;2022-09-09T02:10:00;22.13;;;19.93;;
13805;SDS011;6974;53.606;9.872;2022-09-09T02:12:31;23.67;;;21.17;;
13805;SDS011;6974;53.606;9.872;2022-09-09T02:15:02;23.43;;;20.83;;
13805;SDS011;6974;53.606;9.872;2022-09-09T02:17:33;22.53;;;20.33;;
13805;SDS011;6974;53.606;9.872;2022-09-09T02:20:03;21.50;;;19.40;;
13805;SDS011;6974;53.606;9.872;2022-09-09T02:22:33;22.20;;;20.00;;
13805;SDS011;6974;53.606;9.872;2022-09-09T02:25:01;21.23;;;19.13;;
13805;SDS011;6974;53.606;9.872;2022-09-09T02:27:31;21.63;;;19.53;;
13805;SDS011;6974;53.606;9.872;2022-09-09T02:29:58;23.10;;;20.70;;
13805;SDS011;6974;53.606;9.872;2022-09-09T02:32:28;22.83;;;20.70;;
13805;SDS011;6974;53.606;9.872;2022-09-09T02:34:59;23.97;;;21.57;;
13805;SDS011;6974;53.606;9.872;2022-09-09T02:37:30;21.83;;;19.63;;
13805;SDS011;6974;53.606;9.872;2022-09-09T02:40:00;20.57;;;18.57;;
13805;SDS011;6974;53.606;9.872;2022-09-09T02:42:27;20.60;;;18.53;;
13805;SDS011;6974;53.606;9.872;2022-09-09T02:44:54;19.70;;;17.80;;
13805;SDS011;6974;53.606;9.872;2022-09-09T02:47:27;21.83;;;19.63;;
13805;SDS011;6974;53.606;9.872;2022-09-09T02:50:02;19.17;;;17.27;;
13805;SDS011;6974;53.606;9.872;2022-09-09T02:52:40;19.47;;;17.57;;
13805;SDS011;6974;53.606;9.872;2022-09-09T02:55:16;21.53;;;19.33;;
13805;SDS011;6974;53.606;9.872;2022-09-09T02:57:46;20.63;;;18.60;;
13805;SDS011;6974;53.606;9.872;2022-09-09T03:00:14;19.83;;;17.83;;
13805;SDS011;6974;53.606;9.872;2022-09-09T03:02:43;21.03;;;18.73;;
13805;SDS011;6974;53.606;9.872;2022-09-09T03:05:10;17.70;;;16.03;;
13805;SDS011;6974;53.606;9.872;2022-09-09T03:07:38;20.07;;;18.03;;
13805;SDS011;6974;53.606;9.872;2022-09-09T03:10:05;18.80;;;17.00;;
13805;SDS011;6974;53.606;9.872;2022-09-09T03:12:33;19.83;;;17.93;;
13805;SDS011;6974;53.606;9.872;2022-09-09T03:14:59;19.83;;;17.73;;
13805;SDS011;6974;53.606;9.872;2022-09-09T03:17:26;20.90;;;18.77;;
13805;SDS011;6974;53.606;9.872;2022-09-09T03:19:54;20.37;;;18.30;;
13805;SDS011;6974;53.606;9.872;2022-09-09T03:22:22;18.40;;;16.60;;
13805;SDS011;6974;53.606;9.872;2022-09-09T03:24:50;18.57;;;16.67;;
13805;SDS011;6974;53.606;9.872;2022-09-09T03:27:17;19.80;;;17.80;;
13805;SDS011;6974;53.606;9.872;2022-09-09T03:29:44;18.93;;;17.13;;
13805;SDS011;6974;53.606;9.872;2022-09-09T03:32:11;19.03;;;17.13;;
13805;SDS011;6974;53.606;9.872;2022-09-09T03:34:38;18.63;;;16.63;;
13805;SDS011;6974;53.606;9.872;2022-09-09T03:37:06;17.83;;;16.13;;
13805;SDS011;6974;53.606;9.872;2022-09-09T03:39:33;18.53;;;16.73;;
13805;SDS011;6974;53.606;9.872;2022-09-09T03:42:00;17.30;;;15.70;;
13805;SDS011;6974;53.606;9.872;2022-09-09T03:44:28;19.00;;;17.10;;
13805;SDS011;6974;53.606;9.872;2022-09-09T03:46:55;16.27;;;14.77;;
13805;SDS011;6974;53.606;9.872;2022-09-09T03:49:22;17.13;;;15.43;;
13805;SDS011;6974;53.606;9.872;2022-09-09T03:51:51;17.00;;;15.30;;
13805;SDS011;6974;53.606;9.872;2022-09-09T03:54:19;16.67;;;14.97;;
13805;SDS011;6974;53.606;9.872;2022-09-09T03:56:45;16.97;;;15.27;;
13805;SDS011;6974;53.606;9.872;2022-09-09T03:59:12;16.73;;;15.03;;
13805;SDS011;6974;53.606;9.872;2022-09-09T04:01:39;17.00;;;15.30;;
13805;SDS011;6974;53.606;9.872;2022-09-09T04:04:06;15.57;;;13.90;;
13805;SDS011;6974;53.606;9.872;2022-09-09T04:06:33;16.20;;;14.60;;
13805;SDS011;6974;53.606;9.872;2022-09-09T04:09:00;15.57;;;14.07;;
13805;SDS011;6974;53.606;9.872;2022-09-09T04:11:29;16.20;;;14.70;;
13805;SDS011;6974;53.606;9.872;2022-09-09T04:13:56;14.80;;;13.20;;
13805;SDS011;6974;53.606;9.872;2022-09-09T04:16:22;15.67;;;14.17;;
13805;SDS011;6974;53.606;9.872;2022-09-09T04:18:49;13.77;;;12.47;;
13805;SDS011;6974;53.606;9.872;2022-09-09T04:21:17;14.77;;;13.13;;
13805;SDS011;6974;53.606;9.872;2022-09-09T04:23:44;17.27;;;14.60;;
13805;SDS011;6974;53.606;9.872;2022-09-09T04:26:10;15.70;;;14.20;;
13805;SDS011;6974;53.606;9.872;2022-09-09T04:28:38;15.07;;;13.57;;
13805;SDS011;6974;53.606;9.872;2022-09-09T04:31:06;13.23;;;12.03;;
13805;SDS011;6974;53.606;9.872;2022-09-09T04:33:34;14.47;;;13.07;;
13805;SDS011;6974;53.606;9.872;2022-09-09T04:36:01;14.30;;;12.90;;
13805;SDS011;6974;53.606;9.872;2022-09-09T04:38:28;13.87;;;12.57;;
13805;SDS011;6974;53.606;9.872;2022-09-09T04:40:55;14.07;;;12.73;;
13805;SDS011;6974;53.606;9.872;2022-09-09T04:43:22;13.73;;;12.43;;
13805;SDS011;6974;53.606;9.872;2022-09-09T04:45:52;14.33;;;12.30;;
13805;SDS011;6974;53.606;9.872;2022-09-09T04:48:19;13.93;;;12.53;;
13805;SDS011;6974;53.606;9.872;2022-09-09T04:50:53;13.03;;;11.80;;
13805;SDS011;6974;53.606;9.872;2022-09-09T04:53:21;13.43;;;12.03;;
13805;SDS011;6974;53.606;9.872;2022-09-09T04:55:48;13.57;;;12.17;;
13805;SDS011;6974;53.606;9.872;2022-09-09T04:58:15;13.13;;;11.83;;
13805;SDS011;6974;53.606;9.872;2022-09-09T05:00:42;12.40;;;11.17;;
13805;SDS011;6974;53.606;9.872;2022-09-09T05:03:10;12.17;;;10.97;;
13805;SDS011;6974;53.606;9.872;2022-09-09T05:05:37;13.10;;;11.80;;
13805;SDS011;6974;53.606;9.872;2022-09-09T05:08:05;12.90;;;11.70;;
13805;SDS011;6974;53.606;9.872;2022-09-09T05:10:33;11.80;;;10.60;;
13805;SDS011;6974;53.606;9.872;2022-09-09T05:13:02;12.27;;;10.80;;
13805;SDS011;6974;53.606;9.872;2022-09-09T05:15:30;13.47;;;12.20;;
13805;SDS011;6974;53.606;9.872;2022-09-09T05:17:57;12.73;;;11.53;;
13805;SDS011;6974;53.606;9.872;2022-09-09T05:20:26;13.73;;;12.33;;
13805;SDS011;6974;53.606;9.872;2022-09-09T05:22:54;13.20;;;11.40;;
13805;SDS011;6974;53.606;9.872;2022-09-09T05:25:21;12.80;;;11.57;;
13805;SDS011;6974;53.606;9.872;2022-09-09T05:27:49;12.87;;;11.70;;
13805;SDS011;6974;53.606;9.872;2022-09-09T05:30:16;15.10;;;12.87;;
13805;SDS011;6974;53.606;9.872;2022-09-09T05:32:44;12.80;;;11.60;;
13805;SDS011;6974;53.606;9.872;2022-09-09T05:35:13;12.60;;;10.87;;
13805;SDS011;6974;53.606;9.872;2022-09-09T05:37:42;13.27;;;11.87;;
13805;SDS011;6974;53.606;9.872;2022-09-09T05:40:11;14.57;;;13.07;;
13805;SDS011;6974;53.606;9.872;2022-09-09T05:42:38;14.93;;;13.33;;
13805;SDS011;6974;53.606;9.872;2022-09-09T05:45:07;13.37;;;11.97;;
13805;SDS011;6974;53.606;9.872;2022-09-09T05:47:34;13.47;;;12.07;;
13805;SDS011;6974;53.606;9.872;2022-09-09T05:50:02;12.63;;;11.07;;
13805;SDS011;6974;53.606;9.872;2022-09-09T05:52:29;12.57;;;11.33;;
13805;SDS011;6974;53.606;9.872;2022-09-09T05:54:58;11.37;;;10.27;;
13805;SDS011;6974;53.606;9.872;2022-09-09T05:57:25;11.13;;;9.40;;
13805;SDS011;6974;53.606;9.872;2022-09-09T05:59:52;10.60;;;9.67;;
13805;SDS011;6974;53.606;9.872;2022-09-09T06:02:19;11.77;;;8.90;;
13805;SDS011;6974;53.606;9.872;2022-09-09T06:04:46;9.47;;;8.17;;
13805;SDS011;6974;53.606;9.872;2022-09-09T06:07:14;9.97;;;7.60;;
13805;SDS011;6974;53.606;9.872;2022-09-09T06:09:41;9.10;;;8.10;;
13805;SDS011;6974;53.606;9.872;2022-09-09T06:12:10;8.20;;;7.40;;
13805;SDS011;6974;53.606;9.872;2022-09-09T06:14:36;9.60;;;6.97;;
13805;SDS011;6974;53.606;9.872;2022-09-09T06:17:04;9.90;;;6.90;;
13805;SDS011;6974;53.606;9.872;2022-09-09T06:19:31;8.07;;;6.27;;
13805;SDS011;6974;53.606;9.872;2022-09-09T06:21:58;7.67;;;6.60;;
13805;SDS011;6974;53.606;9.872;2022-09-09T06:24:26;9.20;;;6.53;;
13805;SDS011;6974;53.606;9.872;2022-09-09T06:26:53;8.70;;;6.30;;
13805;SDS011;6974;53.606;9.872;2022-09-09T06:29:21;6.80;;;6.20;;
13805;SDS011;6974;53.606;9.872;2022-09-09T06:31:48;6.93;;;5.67;;
13805;SDS011;6974;53.606;9.872;2022-09-09T06:34:15;6.60;;;6.00;;
13805;SDS011;6974;53.606;9.872;2022-09-09T06:36:42;6.63;;;6.00;;
13805;SDS011;6974;53.606;9.872;2022-09-09T06:39:10;6.67;;;5.97;;
13805;SDS011;6974;53.606;9.872;2022-09-09T06:41:38;7.23;;;6.03;;
13805;SDS011;6974;53.606;9.872;2022-09-09T06:44:07;7.73;;;6.47;;
13805;SDS011;6974;53.606;9.872;2022-09-09T06:46:38;6.90;;;6.30;;
13805;SDS011;6974;53.606;9.872;2022-09-09T06:49:07;9.43;;;8.53;;
13805;SDS011;6974;53.606;9.872;2022-09-09T06:51:36;7.33;;;6.57;;
13805;SDS011;6974;53.606;9.872;2022-09-09T06:54:07;8.80;;;6.27;;
13805;SDS011;6974;53.606;9.872;2022-09-09T06:56:35;8.17;;;6.27;;
13805;SDS011;6974;53.606;9.872;2022-09-09T06:59:03;8.87;;;5.80;;
13805;SDS011;6974;53.606;9.872;2022-09-09T07:01:33;7.90;;;6.30;;
13805;SDS011;6974;53.606;9.872;2022-09-09T07:04:04;7.43;;;6.00;;
13805;SDS011;6974;53.606;9.872;2022-09-09T07:06:33;6.17;;;5.60;;
13805;SDS011;6974;53.606;9.872;2022-09-09T07:09:03;6.47;;;5.53;;
13805;SDS011;6974;53.606;9.872;2022-09-09T07:11:32;5.97;;;5.37;;
13805;SDS011;6974;53.606;9.872;2022-09-09T07:14:00;8.27;;;5.83;;
13805;SDS011;6974;53.606;9.872;2022-09-09T07:16:27;9.13;;;6.27;;
13805;SDS011;6974;53.606;9.872;2022-09-09T07:18:56;6.60;;;5.80;;
13805;SDS011;6974;53.606;9.872;2022-09-09T07:21:25;6.20;;;5.60;;
13805;SDS011;6974;53.606;9.872;2022-09-09T07:23:53;8.37;;;5.90;;
13805;SDS011;6974;53.606;9.872;2022-09-09T07:26:22;7.40;;;6.00;;
13805;SDS011;6974;53.606;9.872;2022-09-09T07:28:52;7.40;;;5.80;;
13805;SDS011;6974;53.606;9.872;2022-09-09T07:31:21;5.73;;;5.20;;
13805;SDS011;6974;53.606;9.872;2022-09-09T07:33:50;5.90;;;5.20;;
13805;SDS011;6974;53.606;9.872;2022-09-09T07:36:18;6.30;;;5.70;;
13805;SDS011;6974;53.606;9.872;2022-09-09T07:38:49;6.27;;;5.50;;
13805;SDS011;6974;53.606;9.872;2022-09-09T07:41:19;7.80;;;5.40;;
13805;SDS011;6974;53.606;9.872;2022-09-09T07:43:48;6.33;;;5.67;;
13805;SDS011;6974;53.606;9.872;2022-09-09T07:46:16;6.63;;;5.00;;
13805;SDS011;6974;53.606;9.872;2022-09-09T07:48:45;6.00;;;5.40;;
13805;SDS011;6974;53.606;9.872;2022-09-09T07:51:16;6.13;;;5.53;;
13805;SDS011;6974;53.606;9.872;2022-09-09T07:53:46;7.27;;;5.60;;
13805;SDS011;6974;53.606;9.872;2022-09-09T07:56:18;7.63;;;5.10;;
13805;SDS011;6974;53.606;9.872;2022-09-09T07:58:46;5.97;;;5.37;;
13805;SDS011;6974;53.606;9.872;2022-09-09T08:01:16;9.03;;;5.83;;
13805;SDS011;6974;53.606;9.872;2022-09-09T08:03:44;6.57;;;5.17;;
13805;SDS011;6974;53.606;9.872;2022-09-09T08:06:12;6.37;;;5.60;;
13805;SDS011;6974;53.606;9.872;2022-09-09T08:08:39;7.23;;;5.63;;
13805;SDS011;6974;53.606;9.872;2022-09-09T08:11:10;8.57;;;5.40;;
13805;SDS011;6974;53.606;9.872;2022-09-09T08:13:39;6.10;;;5.33;;
13805;SDS011;6974;53.606;9.872;2022-09-09T08:16:08;6.27;;;5.67;;
13805;SDS011;6974;53.606;9.872;2022-09-09T08:18:36;5.47;;;4.97;;
13805;SDS011;6974;53.606;9.872;2022-09-09T08:21:07;10.20;;;5.87;;
13805;SDS011;6974;53.606;9.872;2022-09-09T08:23:36;6.50;;;5.30;;
13805;SDS011;6974;53.606;9.872;2022-09-09T08:26:08;5.30;;;4.80;;
13805;SDS011;6974;53.606;9.872;2022-09-09T08:28:39;5.80;;;5.20;;
13805;SDS011;6974;53.606;9.872;2022-09-09T08:31:08;7.13;;;5.20;;
13805;SDS011;6974;53.606;9.872;2022-09-09T08:33:37;5.37;;;4.87;;
13805;SDS011;6974;53.606;9.872;2022-09-09T08:36:05;6.60;;;5.70;;
13805;SDS011;6974;53.606;9.872;2022-09-09T08:38:35;6.47;;;5.20;;
13805;SDS011;6974;53.606;9.872;2022-09-09T08:44:07;6.53;;;4.33;;
13805;SDS011;6974;53.606;9.872;2022-09-09T08:46:39;6.73;;;4.80;;
13805;SDS011;6974;53.606;9.872;2022-09-09T08:49:19;4.93;;;4.20;;
13805;SDS011;6974;53.606;9.872;2022-09-09T08:52:00;8.50;;;5.10;;
13805;SDS011;6974;53.606;9.872;2022-09-09T08:54:33;6.33;;;4.47;;
13805;SDS011;6974;53.606;9.872;2022-09-09T08:57:03;5.17;;;4.60;;
13805;SDS011;6974;53.606;9.872;2022-09-09T08:59:37;7.20;;;4.60;;
13805;SDS011;6974;53.606;9.872;2022-09-09T09:02:05;5.30;;;4.20;;
13805;SDS011;6974;53.606;9.872;2022-09-09T09:04:46;6.47;;;4.60;;
13805;SDS011;6974;53.606;9.872;2022-09-09T09:07:25;5.00;;;4.03;;
13805;SDS011;6974;53.606;9.872;2022-09-09T09:10:02;6.27;;;4.50;;
13805;SDS011;6974;53.606;9.872;2022-09-09T09:12:38;4.40;;;3.70;;
13805;SDS011;6974;53.606;9.872;2022-09-09T09:15:10;5.03;;;3.80;;
13805;SDS011;6974;53.606;9.872;2022-09-09T09:17:44;3.80;;;3.40;;
13805;SDS011;6974;53.606;9.872;2022-09-09T09:20:13;4.40;;;3.27;;
13805;SDS011;6974;53.606;9.872;2022-09-09T09:22:44;4.50;;;3.40;;
13805;SDS011;6974;53.606;9.872;2022-09-09T09:25:16;7.80;;;3.90;;
13805;SDS011;6974;53.606;9.872;2022-09-09T09:27:49;4.83;;;3.13;;
13805;SDS011;6974;53.606;9.872;2022-09-09T09:30:24;5.87;;;3.20;;
13805;SDS011;6974;53.606;9.872;2022-09-09T09:32:55;3.23;;;2.93;;
13805;SDS011;6974;53.606;9.872;2022-09-09T09:35:26;4.37;;;3.10;;
13805;SDS011;6974;53.606;9.872;2022-09-09T09:37:53;6.07;;;3.20;;
13805;SDS011;6974;53.606;9.872;2022-09-09T09:40:21;6.20;;;2.97;;
13805;SDS011;6974;53.606;9.872;2022-09-09T09:42:50;3.47;;;2.53;;
13805;SDS011;6974;53.606;9.872;2022-09-09T09:45:26;3.10;;;2.80;;
13805;SDS011;6974;53.606;9.872;2022-09-09T09:47:59;3.30;;;2.03;;
13805;SDS011;6974;53.606;9.872;2022-09-09T09:50:28;4.17;;;2.37;;
13805;SDS011;6974;53.606;9.872;2022-09-09T09:52:56;2.87;;;2.10;;
13805;SDS011;6974;53.606;9.872;2022-09-09T09:55:25;3.77;;;2.10;;
13805;SDS011;6974;53.606;9.872;2022-09-09T09:58:01;3.27;;;1.80;;
13805;SDS011;6974;53.606;9.872;2022-09-09T10:00:29;27.03;;;3.80;;
13805;SDS011;6974;53.606;9.872;2022-09-09T10:02:56;4.33;;;2.20;;
13805;SDS011;6974;53.606;9.872;2022-09-09T10:05:27;2.97;;;1.80;;
13805;SDS011;6974;53.606;9.872;2022-09-09T10:08:02;2.60;;;1.60;;
13805;SDS011;6974;53.606;9.872;2022-09-09T10:10:40;3.80;;;1.70;;
13805;SDS011;6974;53.606;9.872;2022-09-09T10:13:18;3.77;;;1.90;;
13805;SDS011;6974;53.606;9.872;2022-09-09T10:15:51;3.07;;;1.80;;
13805;SDS011;6974;53.606;9.872;2022-09-09T10:18:33;4.53;;;2.30;;
13805;SDS011;6974;53.606;9.872;2022-09-09T10:21:10;3.50;;;2.00;;
13805;SDS011;6974;53.606;9.872;2022-09-09T10:23:58;2.67;;;2.20;;
13805;SDS011;6974;53.606;9.872;2022-09-09T10:26:35;3.10;;;1.97;;
13805;SDS011;6974;53.606;9.872;2022-09-09T10:32:30;2.37;;;1.60;;
13805;SDS011;6974;53.606;9.872;2022-09-09T10:35:04;2.77;;;1.57;;
13805;SDS011;6974;53.606;9.872;2022-09-09T10:37:43;3.27;;;1.60;;
13805;SDS011;6974;53.606;9.872;2022-09-09T10:40:28;3.37;;;1.53;;
13805;SDS011;6974;53.606;9.872;2022-09-09T10:43:01;2.20;;;1.40;;
13805;SDS011;6974;53.606;9.872;2022-09-09T10:45:46;1.77;;;1.33;;
13805;SDS011;6974;53.606;9.872;2022-09-09T10:48:24;2.70;;;1.47;;
13805;SDS011;6974;53.606;9.872;2022-09-09T10:51:09;3.13;;;1.40;;
13805;SDS011;6974;53.606;9.872;2022-09-09T10:53:48;5.10;;;1.47;;
13805;SDS011;6974;53.606;9.872;2022-09-09T10:56:21;2.10;;;1.37;;
13805;SDS011;6974;53.606;9.872;2022-09-09T10:58:51;3.43;;;1.70;;
13805;SDS011;6974;53.606;9.872;2022-09-09T11:01:23;2.30;;;1.50;;
13805;SDS011;6974;53.606;9.872;2022-09-09T11:03:53;2.40;;;1.60;;
13805;SDS011;6974;53.606;9.872;2022-09-09T11:06:24;2.27;;;1.50;;
13805;SDS011;6974;53.606;9.872;2022-09-09T11:08:58;3.13;;;1.60;;
13805;SDS011;6974;53.606;9.872;2022-09-09T11:11:32;2.00;;;1.67;;
13805;SDS011;6974;53.606;9.872;2022-09-09T11:14:04;2.23;;;1.63;;
13805;SDS011;6974;53.606;9.872;2022-09-09T11:16:40;3.37;;;2.00;;
13805;SDS011;6974;53.606;9.872;2022-09-09T11:19:14;4.20;;;2.03;;
13805;SDS011;6974;53.606;9.872;2022-09-09T11:21:46;3.27;;;1.90;;
13805;SDS011;6974;53.606;9.872;2022-09-09T11:24:18;2.63;;;1.93;;
13805;SDS011;6974;53.606;9.872;2022-09-09T11:26:50;2.10;;;1.70;;
13805;SDS011;6974;53.606;9.872;2022-09-09T11:32:20;3.47;;;1.70;;
13805;SDS011;6974;53.606;9.872;2022-09-09T11:35:01;3.53;;;1.83;;
13805;SDS011;6974;53.606;9.872;2022-09-09T11:37:42;2.63;;;1.90;;
13805;SDS011;6974;53.606;9.872;2022-09-09T11:40:22;5.73;;;1.90;;
13805;SDS011;6974;53.606;9.872;2022-09-09T11:43:00;3.93;;;2.00;;
13805;SDS011;6974;53.606;9.872;2022-09-09T11:45:30;3.83;;;2.10;;
13805;SDS011;6974;53.606;9.872;2022-09-09T11:48:02;4.50;;;2.00;;
13805;SDS011;6974;53.606;9.872;2022-09-09T11:50:33;3.07;;;1.83;;
13805;SDS011;6974;53.606;9.872;2022-09-09T11:55:47;5.43;;;2.60;;
13805;SDS011;6974;53.606;9.872;2022-09-09T11:58:25;3.73;;;1.73;;
13805;SDS011;6974;53.606;9.872;2022-09-09T12:00:54;2.20;;;1.80;;
13805;SDS011;6974;53.606;9.872;2022-09-09T12:03:36;5.00;;;2.07;;
13805;SDS011;6974;53.606;9.872;2022-09-09T12:06:09;4.03;;;1.77;;
13805;SDS011;6974;53.606;9.872;2022-09-09T12:08:41;3.40;;;1.73;;
13805;SDS011;6974;53.606;9.872;2022-09-09T12:11:10;3.90;;;1.70;;
13805;SDS011;6974;53.606;9.872;2022-09-09T12:13:37;3.77;;;1.70;;
13805;SDS011;6974;53.606;9.872;2022-09-09T12:16:26;2.93;;;1.60;;
13805;SDS011;6974;53.606;9.872;2022-09-09T12:19:04;2.13;;;1.67;;
13805;SDS011;6974;53.606;9.872;2022-09-09T12:21:34;6.10;;;2.10;;
13805;SDS011;6974;53.606;9.872;2022-09-09T12:24:06;3.30;;;1.70;;
13805;SDS011;6974;53.606;9.872;2022-09-09T12:26:36;2.20;;;1.53;;
13805;SDS011;6974;53.606;9.872;2022-09-09T12:29:12;3.07;;;1.97;;
13805;SDS011;6974;53.606;9.872;2022-09-09T12:31:52;3.70;;;1.70;;
13805;SDS011;6974;53.606;9.872;2022-09-09T12:34:32;2.53;;;1.80;;
13805;SDS011;6974;53.606;9.872;2022-09-09T12:37:05;3.43;;;1.87;;
13805;SDS011;6974;53.606;9.872;2022-09-09T12:39:40;2.43;;;1.87;;
13805;SDS011;6974;53.606;9.872;2022-09-09T12:42:15;4.57;;;2.00;;
13805;SDS011;6974;53.606;9.872;2022-09-09T12:44:50;3.80;;;1.80;;
13805;SDS011;6974;53.606;9.872;2022-09-09T12:47:18;3.00;;;2.20;;
13805;SDS011;6974;53.606;9.872;2022-09-09T12:49:47;2.70;;;2.03;;
13805;SDS011;6974;53.606;9.872;2022-09-09T12:52:17;5.57;;;2.23;;
13805;SDS011;6974;53.606;9.872;2022-09-09T12:54:51;3.57;;;1.90;;
13805;SDS011;6974;53.606;9.872;2022-09-09T12:57:19;3.30;;;2.20;;
13805;SDS011;6974;53.606;9.872;2022-09-09T12:59:50;5.27;;;2.03;;
13805;SDS011;6974;53.606;9.872;2022-09-09T13:02:19;4.83;;;2.30;;
13805;SDS011;6974;53.606;9.872;2022-09-09T13:04:49;6.10;;;2.63;;
13805;SDS011;6974;53.606;9.872;2022-09-09T13:07:16;4.93;;;2.10;;
13805;SDS011;6974;53.606;9.872;2022-09-09T13:09:44;3.47;;;2.33;;
13805;SDS011;6974;53.606;9.872;2022-09-09T13:12:13;4.17;;;2.40;;
13805;SDS011;6974;53.606;9.872;2022-09-09T13:14:43;3.33;;;2.37;;
13805;SDS011;6974;53.606;9.872;2022-09-09T13:17:17;3.87;;;2.27;;
13805;SDS011;6974;53.606;9.872;2022-09-09T13:19:46;5.13;;;2.27;;
13805;SDS011;6974;53.606;9.872;2022-09-09T13:22:20;3.80;;;2.40;;
13805;SDS011;6974;53.606;9.872;2022-09-09T13:24:59;3.70;;;2.57;;
13805;SDS011;6974;53.606;9.872;2022-09-09T13:27:31;3.70;;;2.70;;
13805;SDS011;6974;53.606;9.872;2022-09-09T13:30:00;4.63;;;2.10;;
13805;SDS011;6974;53.606;9.872;2022-09-09T13:32:27;2.20;;;1.90;;
13805;SDS011;6974;53.606;9.872;2022-09-09T13:34:58;4.17;;;2.20;;
13805;SDS011;6974;53.606;9.872;2022-09-09T13:37:28;2.13;;;1.37;;
13805;SDS011;6974;53.606;9.872;2022-09-09T13:39:58;3.27;;;1.30;;
13805;SDS011;6974;53.606;9.872;2022-09-09T13:42:26;2.10;;;1.73;;
13805;SDS011;6974;53.606;9.872;2022-09-09T13:44:55;2.37;;;1.30;;
13805;SDS011;6974;53.606;9.872;2022-09-09T13:47:27;2.80;;;1.50;;
13805;SDS011;6974;53.606;9.872;2022-09-09T13:49:58;1.43;;;1.10;;
13805;SDS011;6974;53.606;9.872;2022-09-09T13:52:25;2.30;;;1.33;;
13805;SDS011;6974;53.606;9.872;2022-09-09T13:54:56;1.67;;;1.43;;
13805;SDS011;6974;53.606;9.872;2022-09-09T13:57:24;2.27;;;1.60;;
13805;SDS011;6974;53.606;9.872;2022-09-09T13:59:52;2.83;;;1.53;;
13805;SDS011;6974;53.606;9.872;2022-09-09T14:02:20;3.40;;;1.70;;
13805;SDS011;6974;53.606;9.872;2022-09-09T14:04:48;2.83;;;1.80;;
13805;SDS011;6974;53.606;9.872;2022-09-09T14:07:17;3.40;;;1.97;;
13805;SDS011;6974;53.606;9.872;2022-09-09T14:09:45;2.80;;;1.97;;
13805;SDS011;6974;53.606;9.872;2022-09-09T14:12:15;4.00;;;2.20;;
13805;SDS011;6974;53.606;9.872;2022-09-09T14:14:43;3.63;;;2.23;;
13805;SDS011;6974;53.606;9.872;2022-09-09T14:17:10;3.83;;;2.20;;
13805;SDS011;6974;53.606;9.872;2022-09-09T14:19:37;4.03;;;2.23;;
13805;SDS011;6974;53.606;9.872;2022-09-09T14:22:03;3.37;;;2.20;;
13805;SDS011;6974;53.606;9.872;2022-09-09T14:24:31;3.50;;;2.20;;
13805;SDS011;6974;53.606;9.872;2022-09-09T14:27:00;2.60;;;2.20;;
13805;SDS011;6974;53.606;9.872;2022-09-09T14:29:27;4.63;;;2.40;;
13805;SDS011;6974;53.606;9.872;2022-09-09T14:31:53;4.13;;;2.67;;
13805;SDS011;6974;53.606;9.872;2022-09-09T14:34:20;3.90;;;2.70;;
13805;SDS011;6974;53.606;9.872;2022-09-09T14:36:47;3.97;;;2.47;;
13805;SDS011;6974;53.606;9.872;2022-09-09T14:39:14;4.07;;;2.50;;
13805;SDS011;6974;53.606;9.872;2022-09-09T14:41:42;3.20;;;2.43;;
13805;SDS011;6974;53.606;9.872;2022-09-09T14:44:10;3.70;;;2.90;;
13805;SDS011;6974;53.606;9.872;2022-09-09T14:46:37;4.80;;;2.80;;
13805;SDS011;6974;53.606;9.872;2022-09-09T14:49:04;4.37;;;2.70;;
13805;SDS011;6974;53.606;9.872;2022-09-09T14:51:31;5.90;;;3.20;;
13805;SDS011;6974;53.606;9.872;2022-09-09T14:53:58;5.63;;;3.43;;
13805;SDS011;6974;53.606;9.872;2022-09-09T14:56:27;5.20;;;3.40;;
13805;SDS011;6974;53.606;9.872;2022-09-09T14:58:57;3.57;;;3.10;;
13805;SDS011;6974;53.606;9.872;2022-09-09T15:01:25;3.73;;;3.10;;
13805;SDS011;6974;53.606;9.872;2022-09-09T15:03:54;4.80;;;3.40;;
13805;SDS011;6974;53.606;9.872;2022-09-09T15:06:22;4.67;;;3.70;;
13805;SDS011;6974;53.606;9.872;2022-09-09T15:08:51;5.77;;;3.27;;
13805;SDS011;6974;53.606;9.872;2022-09-09T15:11:19;5.33;;;2.90;;
13805;SDS011;6974;53.606;9.872;2022-09-09T15:13:50;6.43;;;3.47;;
13805;SDS011;6974;53.606;9.872;2022-09-09T15:16:21;5.33;;;3.00;;
13805;SDS011;6974;53.606;9.872;2022-09-09T15:18:52;5.87;;;3.40;;
13805;SDS011;6974;53.606;9.872;2022-09-09T15:21:21;5.57;;;3.30;;
13805;SDS011;6974;53.606;9.872;2022-09-09T15:23:49;5.23;;;2.93;;
13805;SDS011;6974;53.606;9.872;2022-09-09T15:26:17;7.33;;;2.90;;